Underwood, Minnesota
Current Conditions -  °F | °C
As of 4:54 PM on Wednesday 26 Nov 2014 (Local Time) from KFFM Reporting Station
Scattered Clouds Scattered Clouds  
Wind Chill: -17°   Ceiling: Unl
Heat Index:   Visibility: 10mi
Dew Point: -6°   Wind: 14mph
Humidity: 72%   Direction: 340°NNW
Pressure: 30.45"   Gusts: NA
Location:  46.29°N, 95.87°W
Report Text: KFFM 262254Z AUTO 34012KT 10SM SCT100 M17/M21 A3045 RMK AO2
Loading
Personal Weather Stations






























Interactive Weather Map New forecast layout! Learn more

10-Day Weather Forecast

Advertisements
Track Severe Weather on mobile